createdAt,value
2022-08-10T00:04:02.376Z,16.50
2022-08-10T00:06:29.940Z,16.40
2022-08-10T00:08:56.866Z,16.30
2022-08-10T00:11:24.087Z,16.30
2022-08-10T00:13:51.894Z,16.20
2022-08-10T00:16:19.431Z,16.30
2022-08-10T00:18:46.332Z,16.30
2022-08-10T00:21:13.359Z,16.20
2022-08-10T00:23:40.356Z,16.40
2022-08-10T00:26:07.855Z,16.30
2022-08-10T00:28:35.018Z,16.30
2022-08-10T00:31:02.179Z,16.30
2022-08-10T00:33:29.074Z,16.30
2022-08-10T00:35:56.021Z,16.40
2022-08-10T00:38:23.460Z,16.40
2022-08-10T00:40:50.458Z,16.30
2022-08-10T00:43:23.551Z,16.30
2022-08-10T00:45:59.062Z,16.30
2022-08-10T00:48:30.217Z,16.20
2022-08-10T00:50:59.268Z,16.10
2022-08-10T00:53:29.319Z,16.10
2022-08-10T00:57:12.440Z,16.10
2022-08-10T00:58:44.619Z,16.10
2022-08-10T01:02:09.965Z,16.00
2022-08-10T01:04:36.206Z,16.10
2022-08-10T01:06:52.158Z,16.00
2022-08-10T01:09:34.119Z,15.90
2022-08-10T01:12:39.817Z,15.90
2022-08-10T01:15:10.275Z,15.90
2022-08-10T01:17:50.228Z,15.80
2022-08-10T01:20:30.483Z,15.80
2022-08-10T01:23:40.525Z,15.80
2022-08-10T01:26:40.932Z,15.80
2022-08-10T01:29:17.436Z,15.90
2022-08-10T01:31:48.653Z,16.00
2022-08-10T01:34:24.707Z,16.00
2022-08-10T01:36:56.114Z,16.00
2022-08-10T01:39:28.632Z,16.00
2022-08-10T01:42:00.353Z,16.00
2022-08-10T01:44:35.371Z,15.90
2022-08-10T01:47:27.586Z,15.80
2022-08-10T01:50:02.227Z,15.70
2022-08-10T01:52:30.996Z,15.80
2022-08-10T01:54:59.261Z,15.70
2022-08-10T01:57:30.559Z,15.70
2022-08-10T02:00:02.093Z,15.70
2022-08-10T02:02:31.869Z,15.60
2022-08-10T02:05:02.294Z,15.70
2022-08-10T02:07:31.313Z,15.60
2022-08-10T02:10:06.973Z,15.60
2022-08-10T02:12:35.986Z,15.80
2022-08-10T02:15:07.355Z,15.80
2022-08-10T02:17:58.007Z,15.70
2022-08-10T02:20:37.285Z,15.50
2022-08-10T02:23:15.353Z,15.40
2022-08-10T02:25:44.716Z,15.40
2022-08-10T02:28:30.975Z,15.40
2022-08-10T02:31:06.980Z,15.50
2022-08-10T02:33:57.233Z,15.30
2022-08-10T02:36:27.873Z,15.20
2022-08-10T02:39:00.669Z,15.10
2022-08-10T02:45:01.158Z,15.10
2022-08-10T02:45:27.814Z,15.10
2022-08-10T02:47:51.245Z,15.10
2022-08-10T02:50:30.225Z,14.90
2022-08-10T02:53:54.587Z,15.00
2022-08-10T02:56:11.970Z,14.90
2022-08-10T02:58:44.134Z,14.90
2022-08-10T03:01:15.794Z,14.90
2022-08-10T03:04:04.420Z,14.90
2022-08-10T03:06:37.118Z,14.90
2022-08-10T03:09:08.618Z,14.90
2022-08-10T03:12:36.535Z,14.90
2022-08-10T03:14:26.669Z,15.00
2022-08-10T03:16:55.873Z,15.00
2022-08-10T03:20:35.413Z,15.10
2022-08-10T03:22:14.366Z,15.10
2022-08-10T03:24:43.616Z,15.00
2022-08-10T03:27:12.061Z,15.00
2022-08-10T03:30:31.705Z,15.00
2022-08-10T03:32:27.119Z,14.90
2022-08-10T03:34:54.903Z,14.90
2022-08-10T03:37:21.795Z,14.90
2022-08-10T03:39:51.320Z,14.90
2022-08-10T03:42:19.127Z,14.90
2022-08-10T03:44:50.379Z,14.90
2022-08-10T03:47:20.430Z,14.90
2022-08-10T03:49:49.707Z,14.90
2022-08-10T03:52:18.001Z,14.90
2022-08-10T03:54:45.472Z,15.00
2022-08-10T03:57:13.565Z,15.10
2022-08-10T03:59:40.667Z,15.10
2022-08-10T04:02:43.692Z,15.00
2022-08-10T04:04:55.185Z,15.00
2022-08-10T04:07:22.761Z,15.10
2022-08-10T04:09:55.206Z,15.10
2022-08-10T04:12:24.350Z,15.10
2022-08-10T04:14:53.146Z,15.20
2022-08-10T04:18:01.358Z,15.30
2022-08-10T04:20:42.564Z,15.30
2022-08-10T04:23:14.183Z,15.30
2022-08-10T04:25:41.502Z,15.40
2022-08-10T04:28:09.180Z,15.40
2022-08-10T04:30:37.097Z,15.40
2022-08-10T04:33:06.765Z,15.40
2022-08-10T04:35:35.509Z,15.50
2022-08-10T04:38:04.452Z,15.60
2022-08-10T04:40:31.978Z,15.50
2022-08-10T04:43:10.826Z,15.50
2022-08-10T04:45:47.387Z,15.50
2022-08-10T04:48:40.038Z,15.50
2022-08-10T04:51:17.870Z,15.50
2022-08-10T04:54:05.634Z,15.60
2022-08-10T04:56:35.533Z,15.60
2022-08-10T04:59:02.636Z,15.60
2022-08-10T05:01:37.744Z,15.70
2022-08-10T05:04:34.789Z,15.70
2022-08-10T05:07:05.640Z,15.80
2022-08-10T05:09:32.552Z,15.80
2022-08-10T05:11:59.435Z,15.80
2022-08-10T05:14:26.358Z,15.90
2022-08-10T05:16:53.255Z,15.90
2022-08-10T05:20:01.320Z,16.00
2022-08-10T05:22:08.604Z,16.10
2022-08-10T05:24:35.536Z,16.10
2022-08-10T05:27:09.423Z,16.10
2022-08-10T05:29:37.917Z,16.10
2022-08-10T05:32:05.453Z,16.30
2022-08-10T05:34:32.382Z,16.30
2022-08-10T05:36:59.928Z,16.40
2022-08-10T05:39:32.160Z,16.40
2022-08-10T05:42:01.175Z,16.40
2022-08-10T05:44:29.571Z,16.50
2022-08-10T05:46:56.661Z,16.40
2022-08-10T05:49:23.679Z,16.40
2022-08-10T05:51:50.885Z,16.40
2022-08-10T05:54:17.955Z,16.40
2022-08-10T05:56:56.176Z,16.40
2022-08-10T06:00:31.006Z,16.70
2022-08-10T06:02:43.975Z,16.80
2022-08-10T06:05:14.547Z,16.90
2022-08-10T06:07:57.299Z,17.10
2022-08-10T06:10:31.292Z,17.20
2022-08-10T06:13:27.035Z,17.20
2022-08-10T06:16:04.321Z,17.40
2022-08-10T06:18:31.622Z,17.70
2022-08-10T06:20:59.324Z,17.90
2022-08-10T06:23:28.390Z,18.10
2022-08-10T06:26:12.167Z,18.20
2022-08-10T06:29:07.132Z,18.40
2022-08-10T06:31:48.236Z,18.60
2022-08-10T06:34:21.503Z,18.70
2022-08-10T06:36:49.081Z,18.80
2022-08-10T06:39:33.110Z,19.00
2022-08-10T06:42:18.101Z,19.10
2022-08-10T06:45:09.989Z,19.30
2022-08-10T06:47:43.910Z,19.50
2022-08-10T06:50:34.796Z,19.70
2022-08-10T06:53:20.821Z,20.00
2022-08-10T06:55:56.795Z,20.00
2022-08-10T06:58:34.652Z,20.10
2022-08-10T07:01:05.577Z,20.20
2022-08-10T07:03:38.713Z,20.40
2022-08-10T07:06:06.625Z,20.60
2022-08-10T07:08:36.332Z,20.70
2022-08-10T07:11:08.791Z,20.90
2022-08-10T07:14:15.970Z,21.00
2022-08-10T07:16:30.247Z,21.20
2022-08-10T07:18:58.611Z,21.40
2022-08-10T07:21:27.254Z,21.70
2022-08-10T07:24:00.406Z,22.10
2022-08-10T07:26:30.441Z,22.70
2022-08-10T07:28:58.612Z,23.00
2022-08-10T07:31:31.111Z,23.80
2022-08-10T07:34:28.698Z,23.40
2022-08-10T07:37:01.194Z,23.80
2022-08-10T07:40:02.970Z,24.10
2022-08-10T07:42:22.116Z,24.50
2022-08-10T07:44:50.847Z,25.30
2022-08-10T07:47:53.647Z,25.30
2022-08-10T07:50:12.972Z,25.40
2022-08-10T07:52:40.477Z,25.80
2022-08-10T07:55:10.372Z,25.60
2022-08-10T07:57:40.270Z,25.70
2022-08-10T08:00:10.928Z,25.40
2022-08-10T08:02:55.365Z,25.10
2022-08-10T08:05:59.031Z,25.50
2022-08-10T08:08:16.227Z,25.20
2022-08-10T08:10:43.357Z,25.00
2022-08-10T08:13:11.584Z,25.20
2022-08-10T08:16:20.612Z,25.30
2022-08-10T08:18:29.247Z,24.40
2022-08-10T08:20:58.255Z,24.70
2022-08-10T08:24:07.808Z,24.90
2022-08-10T08:26:18.949Z,24.40
2022-08-10T08:28:48.772Z,24.70
2022-08-10T08:31:17.968Z,25.40
2022-08-10T08:33:47.136Z,25.70
2022-08-10T08:36:17.142Z,25.60
2022-08-10T08:38:46.135Z,25.30
2022-08-10T08:41:24.826Z,25.20
2022-08-10T08:44:03.535Z,24.60
2022-08-10T08:46:58.886Z,24.50
2022-08-10T08:50:09.765Z,24.20
2022-08-10T08:53:22.428Z,24.60
2022-08-10T08:56:07.356Z,25.30
2022-08-10T08:59:03.122Z,25.80
2022-08-10T09:02:14.414Z,26.20
2022-08-10T09:04:52.895Z,26.70
2022-08-10T09:07:59.582Z,26.30
2022-08-10T09:10:54.093Z,26.20
2022-08-10T09:13:29.547Z,26.40
2022-08-10T09:16:08.824Z,26.40
2022-08-10T09:18:56.645Z,27.10
2022-08-10T09:22:18.901Z,27.30
2022-08-10T09:25:00.914Z,27.80
2022-08-10T09:27:50.083Z,28.00
2022-08-10T09:30:28.376Z,28.70
2022-08-10T09:36:21.774Z,28.90
2022-08-10T09:36:26.785Z,29.20
2022-08-10T09:39:03.737Z,29.20
2022-08-10T09:41:37.817Z,29.40
2022-08-10T09:44:32.334Z,29.40
2022-08-10T09:47:19.814Z,29.50
2022-08-10T09:50:05.401Z,29.80
2022-08-10T09:52:59.654Z,29.70
2022-08-10T09:56:17.717Z,29.70
2022-08-10T09:58:40.302Z,30.10
2022-08-10T10:02:02.836Z,30.40
2022-08-10T10:04:57.768Z,30.50
2022-08-10T10:07:28.612Z,31.20
2022-08-10T10:10:14.328Z,30.90
2022-08-10T10:12:57.211Z,31.50
2022-08-10T10:16:03.568Z,30.70
2022-08-10T10:18:46.016Z,29.80
2022-08-10T10:21:54.421Z,29.00
2022-08-10T10:24:53.038Z,28.80
2022-08-10T10:28:07.987Z,28.10
2022-08-10T10:30:46.165Z,27.50
2022-08-10T10:33:19.564Z,26.90
2022-08-10T10:35:55.400Z,26.50
2022-08-10T10:38:29.908Z,26.40
2022-08-10T10:41:56.152Z,25.80
2022-08-10T10:44:46.848Z,25.60
2022-08-10T10:47:47.758Z,25.20
2022-08-10T10:50:41.666Z,24.80
2022-08-10T10:53:36.791Z,24.60
2022-08-10T10:56:15.053Z,24.30
2022-08-10T10:58:58.428Z,24.10
2022-08-10T11:01:43.915Z,24.20
2022-08-10T11:04:42.648Z,24.60
2022-08-10T11:07:33.816Z,24.80
2022-08-10T11:10:32.083Z,25.60
2022-08-10T11:14:26.461Z,26.50
2022-08-10T11:16:18.255Z,27.10
2022-08-10T11:19:07.643Z,29.20
2022-08-10T11:21:56.681Z,28.70
2022-08-10T11:24:47.979Z,28.80
2022-08-10T11:27:35.487Z,28.00
2022-08-10T11:30:06.077Z,27.50
2022-08-10T11:32:41.402Z,27.20
2022-08-10T11:35:12.740Z,26.50
2022-08-10T11:38:31.713Z,26.00
2022-08-10T11:42:10.196Z,25.40
2022-08-10T11:44:25.271Z,25.40
2022-08-10T11:47:04.891Z,25.40
2022-08-10T11:49:40.809Z,25.40
2022-08-10T11:52:13.955Z,25.80
2022-08-10T11:54:53.235Z,26.00
2022-08-10T11:57:23.782Z,26.70
2022-08-10T11:59:58.326Z,27.70
2022-08-10T12:02:33.233Z,29.10
2022-08-10T12:05:06.166Z,29.10
2022-08-10T12:10:07.578Z,30.20
2022-08-10T12:10:23.540Z,31.00
2022-08-10T12:13:17.158Z,30.60
2022-08-10T12:16:01.001Z,30.10
2022-08-10T12:18:31.608Z,29.10
2022-08-10T12:21:03.364Z,28.70
2022-08-10T12:23:39.366Z,27.90
2022-08-10T12:26:13.869Z,27.60
2022-08-10T12:28:50.103Z,27.30
2022-08-10T12:31:25.170Z,27.10
2022-08-10T12:34:16.032Z,27.40
2022-08-10T12:36:47.743Z,27.20
2022-08-10T12:39:19.033Z,27.20
2022-08-10T12:41:59.995Z,27.40
2022-08-10T12:44:50.291Z,27.20
2022-08-10T12:47:32.724Z,27.40
2022-08-10T12:50:33.850Z,27.70
2022-08-10T12:53:31.185Z,28.60
2022-08-10T12:55:58.471Z,29.40
2022-08-10T12:59:00.209Z,30.50
2022-08-10T13:01:16.933Z,30.50
2022-08-10T13:04:21.766Z,31.00
2022-08-10T13:06:41.776Z,31.10
2022-08-10T13:09:08.994Z,31.40
2022-08-10T13:12:38.644Z,31.60
2022-08-10T13:15:45.867Z,31.80
2022-08-10T13:18:04.843Z,31.90
2022-08-10T13:20:37.119Z,31.90
2022-08-10T13:23:13.281Z,31.90
2022-08-10T13:25:45.578Z,31.90
2022-08-10T13:28:36.542Z,31.60
2022-08-10T13:31:16.981Z,31.30
2022-08-10T13:34:40.215Z,30.10
2022-08-10T13:36:57.167Z,29.20
2022-08-10T13:39:27.744Z,28.60
2022-08-10T13:41:56.293Z,28.10
2022-08-10T13:44:33.487Z,27.70
2022-08-10T13:47:00.820Z,27.10
2022-08-10T13:49:30.485Z,27.00
2022-08-10T13:51:58.677Z,27.00
2022-08-10T13:54:35.906Z,27.00
2022-08-10T13:57:04.171Z,26.80
2022-08-10T14:00:35.505Z,26.70
2022-08-10T14:02:39.196Z,26.60
2022-08-10T14:05:07.443Z,27.00
2022-08-10T14:08:00.557Z,27.80
2022-08-10T14:11:08.568Z,28.60
2022-08-10T14:13:23.766Z,29.20
2022-08-10T14:15:51.017Z,29.60
2022-08-10T14:18:18.886Z,29.30
2022-08-10T14:20:48.088Z,29.50
2022-08-10T14:23:15.705Z,29.70
2022-08-10T14:25:56.558Z,30.30
2022-08-10T14:28:31.322Z,30.60
2022-08-10T14:31:03.595Z,30.40
2022-08-10T14:33:32.024Z,30.80
2022-08-10T14:36:19.103Z,30.40
2022-08-10T14:38:48.843Z,30.40
2022-08-10T14:42:02.716Z,30.10
2022-08-10T14:44:13.775Z,30.10
2022-08-10T14:46:45.950Z,29.50
2022-08-10T14:49:26.084Z,29.20
2022-08-10T14:51:59.766Z,29.00
2022-08-10T14:54:29.836Z,29.20
2022-08-10T14:57:11.049Z,29.20
2022-08-10T15:00:24.730Z,29.60
2022-08-10T15:02:40.168Z,29.90
2022-08-10T15:05:22.035Z,29.60
2022-08-10T15:07:59.261Z,29.90
2022-08-10T15:10:28.741Z,30.00
2022-08-10T15:12:58.620Z,30.00
2022-08-10T15:15:28.671Z,30.40
2022-08-10T15:17:58.672Z,30.00
2022-08-10T15:20:28.676Z,30.00
2022-08-10T15:23:08.317Z,30.00
2022-08-10T15:25:59.633Z,30.10
2022-08-10T15:29:04.090Z,29.60
2022-08-10T15:31:19.883Z,29.50
2022-08-10T15:34:08.784Z,29.40
2022-08-10T15:37:36.154Z,28.80
2022-08-10T15:40:23.815Z,28.50
2022-08-10T15:42:52.335Z,28.60
2022-08-10T15:45:19.581Z,27.70
2022-08-10T15:48:02.392Z,27.10
2022-08-10T15:50:43.768Z,26.70
2022-08-10T15:53:16.800Z,26.60
2022-08-10T15:56:15.387Z,26.70
2022-08-10T15:59:13.035Z,26.70
2022-08-10T16:02:14.321Z,26.70
2022-08-10T16:05:10.975Z,26.40
2022-08-10T16:07:57.864Z,26.50
2022-08-10T16:10:30.856Z,26.50
2022-08-10T16:13:00.824Z,26.50
2022-08-10T16:15:30.323Z,26.50
2022-08-10T16:18:08.941Z,26.40
2022-08-10T16:20:52.474Z,26.40
2022-08-10T16:23:28.764Z,26.50
2022-08-10T16:26:04.597Z,26.60
2022-08-10T16:28:38.806Z,26.50
2022-08-10T16:31:08.277Z,26.30
2022-08-10T16:33:53.039Z,26.30
2022-08-10T16:36:22.356Z,26.30
2022-08-10T16:38:52.328Z,26.10
2022-08-10T16:42:00.381Z,26.10
2022-08-10T16:44:11.197Z,25.80
2022-08-10T16:46:42.677Z,25.70
2022-08-10T16:49:10.997Z,25.50
2022-08-10T16:51:39.873Z,25.40
2022-08-10T16:54:09.126Z,25.30
2022-08-10T16:56:49.345Z,25.00
2022-08-10T16:59:21.032Z,24.80
2022-08-10T17:01:54.172Z,24.50
2022-08-10T17:04:23.674Z,24.30
2022-08-10T17:06:58.844Z,24.10
2022-08-10T17:09:35.324Z,23.90
2022-08-10T17:12:13.806Z,23.80
2022-08-10T17:14:43.367Z,23.70
2022-08-10T17:17:27.383Z,23.80
2022-08-10T17:19:57.532Z,23.60
2022-08-10T17:22:45.540Z,23.50
2022-08-10T17:25:16.297Z,23.50
2022-08-10T17:28:04.051Z,23.30
2022-08-10T17:30:36.857Z,23.20
2022-08-10T17:33:21.858Z,23.10
2022-08-10T17:35:51.757Z,23.10
2022-08-10T17:38:22.937Z,23.10
2022-08-10T17:41:12.630Z,23.10
2022-08-10T17:43:57.093Z,23.20
2022-08-10T17:46:33.457Z,23.10
2022-08-10T17:49:07.077Z,22.90
2022-08-10T17:51:34.591Z,22.70
2022-08-10T17:54:04.498Z,22.70
2022-08-10T17:56:33.784Z,22.60
2022-08-10T17:59:14.645Z,22.50
2022-08-10T18:02:01.762Z,22.30
2022-08-10T18:04:40.886Z,22.30
2022-08-10T18:07:10.252Z,22.30
2022-08-10T18:09:57.603Z,22.10
2022-08-10T18:12:38.764Z,22.00
2022-08-10T18:15:12.229Z,22.10
2022-08-10T18:17:44.756Z,22.10
2022-08-10T18:20:13.171Z,22.00
2022-08-10T18:22:44.998Z,22.00
2022-08-10T18:25:27.278Z,21.90
2022-08-10T18:28:04.498Z,21.90
2022-08-10T18:30:36.529Z,21.70
2022-08-10T18:33:08.748Z,21.70
2022-08-10T18:35:36.353Z,21.60
2022-08-10T18:38:04.136Z,21.60
2022-08-10T18:40:36.356Z,21.60
2022-08-10T18:44:07.451Z,21.60
2022-08-10T18:45:57.250Z,21.60
2022-08-10T18:48:33.251Z,21.40
2022-08-10T18:51:05.932Z,21.50
2022-08-10T18:53:36.260Z,21.40
2022-08-10T18:56:31.139Z,21.40
2022-08-10T18:59:27.223Z,21.20
2022-08-10T19:02:41.529Z,21.20
2022-08-10T19:05:48.634Z,20.90
2022-08-10T19:08:49.179Z,20.80
2022-08-10T19:11:41.258Z,20.70
2022-08-10T19:14:16.359Z,20.50
2022-08-10T19:16:49.244Z,20.40
2022-08-10T19:19:37.549Z,20.40
2022-08-10T19:22:16.965Z,20.30
2022-08-10T19:25:01.685Z,20.30
2022-08-10T19:27:59.534Z,20.20
2022-08-10T19:30:40.307Z,19.90
2022-08-10T19:33:31.295Z,19.90
2022-08-10T19:36:08.703Z,19.80
2022-08-10T19:38:46.988Z,19.70
2022-08-10T19:41:44.415Z,19.70
2022-08-10T19:44:31.280Z,19.60
2022-08-10T19:47:29.037Z,19.60
2022-08-10T19:50:15.011Z,19.70
2022-08-10T19:53:26.055Z,19.90
2022-08-10T19:56:34.263Z,19.90
2022-08-10T19:59:17.073Z,19.80
2022-08-10T20:02:04.406Z,19.80
2022-08-10T20:04:36.391Z,19.60
2022-08-10T20:07:27.541Z,19.40
2022-08-10T20:10:22.028Z,19.40
2022-08-10T20:13:10.154Z,19.40
2022-08-10T20:15:47.477Z,19.30
2022-08-10T20:18:22.925Z,19.30
2022-08-10T20:20:56.669Z,18.70
2022-08-10T20:23:34.198Z,19.20
2022-08-10T20:26:05.528Z,19.20
2022-08-10T20:28:49.769Z,19.20
2022-08-10T20:31:41.185Z,19.40
2022-08-10T20:34:16.532Z,19.30
2022-08-10T20:37:07.596Z,19.30
2022-08-10T20:39:43.739Z,19.40
2022-08-10T20:42:13.362Z,19.30
2022-08-10T20:45:01.892Z,19.10
2022-08-10T20:47:44.280Z,19.10
2022-08-10T20:50:37.020Z,18.90
2022-08-10T20:53:11.305Z,18.80
2022-08-10T20:55:58.408Z,18.80
2022-08-10T20:58:53.883Z,18.90
2022-08-10T21:02:07.176Z,18.90
2022-08-10T21:04:49.876Z,19.00
2022-08-10T21:08:00.572Z,18.90
2022-08-10T21:10:58.092Z,18.90
2022-08-10T21:13:38.151Z,18.90
2022-08-10T21:16:20.470Z,18.80
2022-08-10T21:19:18.653Z,18.80
2022-08-10T21:22:03.702Z,18.70
2022-08-10T21:24:54.769Z,18.70
2022-08-10T21:27:47.221Z,18.70
2022-08-10T21:30:20.604Z,18.60
2022-08-10T21:32:59.323Z,18.60
2022-08-10T21:35:48.636Z,18.50
2022-08-10T21:38:40.314Z,18.50
2022-08-10T21:41:57.933Z,18.60
2022-08-10T21:45:58.242Z,18.50
2022-08-10T21:48:57.241Z,18.40
2022-08-10T21:52:01.634Z,18.40
2022-08-10T21:54:58.286Z,18.40
2022-08-10T21:57:58.884Z,18.20
2022-08-10T22:03:48.951Z,18.20
2022-08-10T22:06:52.643Z,18.10
2022-08-10T22:09:43.077Z,18.10
2022-08-10T22:12:32.471Z,18.10
2022-08-10T22:16:03.090Z,18.00
2022-08-10T22:19:01.409Z,17.80
2022-08-10T22:21:56.992Z,17.80
2022-08-10T22:25:03.445Z,17.90
2022-08-10T22:27:55.652Z,17.80
2022-08-10T22:31:14.895Z,17.80
2022-08-10T22:33:51.600Z,17.70
2022-08-10T22:37:09.472Z,17.70
2022-08-10T22:40:14.001Z,17.50
2022-08-10T22:43:10.359Z,17.50
2022-08-10T22:46:01.852Z,17.50
2022-08-10T22:48:47.209Z,17.60
2022-08-10T22:51:23.443Z,17.60
2022-08-10T22:54:31.009Z,17.70
2022-08-10T22:57:18.918Z,17.60
2022-08-10T22:59:47.034Z,17.50
2022-08-10T23:02:33.719Z,17.40
2022-08-10T23:05:09.289Z,17.60
2022-08-10T23:07:49.438Z,17.40
2022-08-10T23:10:20.250Z,17.30
2022-08-10T23:13:09.971Z,17.20
2022-08-10T23:15:59.932Z,17.20
2022-08-10T23:18:56.807Z,17.10
2022-08-10T23:22:01.643Z,17.10
2022-08-10T23:24:22.676Z,17.20
2022-08-10T23:26:54.322Z,17.30
2022-08-10T23:29:23.491Z,17.10
2022-08-10T23:32:06.693Z,17.20
2022-08-10T23:34:36.919Z,17.30
2022-08-10T23:37:07.866Z,17.10
2022-08-10T23:39:42.167Z,16.90
2022-08-10T23:42:17.539Z,16.80
2022-08-10T23:44:55.980Z,16.80
2022-08-10T23:47:25.655Z,16.80
2022-08-10T23:49:55.635Z,16.70
2022-08-10T23:52:30.282Z,16.70
2022-08-10T23:55:00.993Z,16.70
2022-08-10T23:57:29.594Z,16.70
